Piapot, Canada
Current Conditions -  °F | °C
As of 11:00 PM on Monday 20 Oct 2014 (Local Time) from CYYN Reporting Station
Clear Clear  
Wind Chill: 54°   Ceiling: Unl
Heat Index: 54°   Visibility: 9mi
Dew Point: 43°   Wind: 14mph
Humidity: 67%   Direction: 190°S
Pressure: 29.68"   Gusts: NA
Location:  49.98°N, 109.12°W
Report Text: CYYN 210500Z AUTO 19012KT 9SM CLR 12/06 A2968 RMK SLP048 DENSITY ALT 3200FT
Loading
Personal Weather Stations






























Interactive Weather Map
Tropical Storm Tracking
New forecast layout! Learn more

10-Day Weather Forecast

Advertisements
Track Severe Weather on mobile